sensor_id;sensor_type;location;lat;lon;timestamp;temperature;humidity
40059;SHT31;25763;49.972;8.568;2023-04-03T00:01:06;5.29;69.15
40059;SHT31;25763;49.972;8.568;2023-04-03T00:03:32;5.35;69.33
40059;SHT31;25763;49.972;8.568;2023-04-03T00:05:58;5.33;69.15
40059;SHT31;25763;49.972;8.568;2023-04-03T00:08:23;5.32;69.38
40059;SHT31;25763;49.972;8.568;2023-04-03T00:10:49;5.26;69.77
40059;SHT31;25763;49.972;8.568;2023-04-03T00:13:14;5.25;69.97
40059;SHT31;25763;49.972;8.568;2023-04-03T00:15:41;5.23;69.90
40059;SHT31;25763;49.972;8.568;2023-04-03T00:18:07;5.25;69.92
40059;SHT31;25763;49.972;8.568;2023-04-03T00:20:33;5.18;70.05
40059;SHT31;25763;49.972;8.568;2023-04-03T00:22:59;5.16;70.21
40059;SHT31;25763;49.972;8.568;2023-04-03T00:25:24;5.12;70.47
40059;SHT31;25763;49.972;8.568;2023-04-03T00:27:50;5.11;70.48
40059;SHT31;25763;49.972;8.568;2023-04-03T00:30:18;5.16;70.49
40059;SHT31;25763;49.972;8.568;2023-04-03T00:32:44;5.23;70.22
40059;SHT31;25763;49.972;8.568;2023-04-03T00:35:10;5.36;70.97
40059;SHT31;25763;49.972;8.568;2023-04-03T00:37:36;5.43;71.22
40059;SHT31;25763;49.972;8.568;2023-04-03T00:40:02;5.42;70.75
40059;SHT31;25763;49.972;8.568;2023-04-03T00:42:28;5.35;70.28
40059;SHT31;25763;49.972;8.568;2023-04-03T00:47:21;5.33;70.16
40059;SHT31;25763;49.972;8.568;2023-04-03T00:49:48;5.38;70.22
40059;SHT31;25763;49.972;8.568;2023-04-03T00:52:16;5.25;69.93
40059;SHT31;25763;49.972;8.568;2023-04-03T00:54:43;5.23;70.45
40059;SHT31;25763;49.972;8.568;2023-04-03T00:57:11;5.26;70.39
40059;SHT31;25763;49.972;8.568;2023-04-03T00:59:43;5.21;70.69
40059;SHT31;25763;49.972;8.568;2023-04-03T01:02:09;5.11;70.56
40059;SHT31;25763;49.972;8.568;2023-04-03T01:04:40;5.12;70.78
40059;SHT31;25763;49.972;8.568;2023-04-03T01:07:30;5.13;70.81
40059;SHT31;25763;49.972;8.568;2023-04-03T01:09:58;5.09;71.14
40059;SHT31;25763;49.972;8.568;2023-04-03T01:12:32;5.13;70.99
40059;SHT31;25763;49.972;8.568;2023-04-03T01:15:10;5.19;70.99
40059;SHT31;25763;49.972;8.568;2023-04-03T01:17:41;5.25;71.05
40059;SHT31;25763;49.972;8.568;2023-04-03T01:25:38;5.25;70.72
40059;SHT31;25763;49.972;8.568;2023-04-03T01:28:05;5.19;70.92
40059;SHT31;25763;49.972;8.568;2023-04-03T01:30:34;5.21;71.23
40059;SHT31;25763;49.972;8.568;2023-04-03T01:33:01;5.25;71.56
40059;SHT31;25763;49.972;8.568;2023-04-03T01:35:26;5.30;71.42
40059;SHT31;25763;49.972;8.568;2023-04-03T01:37:51;5.23;70.92
40059;SHT31;25763;49.972;8.568;2023-04-03T01:40:17;5.09;71.47
40059;SHT31;25763;49.972;8.568;2023-04-03T01:42:42;5.05;71.69
40059;SHT31;25763;49.972;8.568;2023-04-03T01:45:08;5.16;71.85
40059;SHT31;25763;49.972;8.568;2023-04-03T01:47:34;5.16;71.80
40059;SHT31;25763;49.972;8.568;2023-04-03T01:49:59;5.19;71.71
40059;SHT31;25763;49.972;8.568;2023-04-03T01:52:25;5.18;71.32
40059;SHT31;25763;49.972;8.568;2023-04-03T01:54:50;5.22;71.35
40059;SHT31;25763;49.972;8.568;2023-04-03T01:57:16;5.16;71.51
40059;SHT31;25763;49.972;8.568;2023-04-03T01:59:41;5.18;71.66
40059;SHT31;25763;49.972;8.568;2023-04-03T02:02:07;5.16;71.46
40059;SHT31;25763;49.972;8.568;2023-04-03T02:04:32;5.18;71.52
40059;SHT31;25763;49.972;8.568;2023-04-03T02:06:58;5.09;71.71
40059;SHT31;25763;49.972;8.568;2023-04-03T02:09:23;5.13;71.71
40059;SHT31;25763;49.972;8.568;2023-04-03T02:11:49;5.07;71.90
40059;SHT31;25763;49.972;8.568;2023-04-03T02:14:14;5.07;71.79
40059;SHT31;25763;49.972;8.568;2023-04-03T02:16:39;5.03;72.11
40059;SHT31;25763;49.972;8.568;2023-04-03T02:19:05;5.01;72.29
40059;SHT31;25763;49.972;8.568;2023-04-03T02:21:30;4.88;72.32
40059;SHT31;25763;49.972;8.568;2023-04-03T02:23:56;4.91;72.57
40059;SHT31;25763;49.972;8.568;2023-04-03T02:26:21;4.84;72.45
40059;SHT31;25763;49.972;8.568;2023-04-03T02:28:47;4.87;72.48
40059;SHT31;25763;49.972;8.568;2023-04-03T02:31:12;4.88;72.47
40059;SHT31;25763;49.972;8.568;2023-04-03T02:33:37;4.87;72.59
40059;SHT31;25763;49.972;8.568;2023-04-03T02:36:06;4.83;72.72
40059;SHT31;25763;49.972;8.568;2023-04-03T02:38:32;4.83;72.61
40059;SHT31;25763;49.972;8.568;2023-04-03T02:41:05;4.83;73.00
40059;SHT31;25763;49.972;8.568;2023-04-03T02:43:31;4.91;73.17
40059;SHT31;25763;49.972;8.568;2023-04-03T02:45:56;4.84;72.86
40059;SHT31;25763;49.972;8.568;2023-04-03T02:48:22;4.86;73.23
40059;SHT31;25763;49.972;8.568;2023-04-03T02:50:48;4.93;73.32
40059;SHT31;25763;49.972;8.568;2023-04-03T02:53:13;4.90;73.18
40059;SHT31;25763;49.972;8.568;2023-04-03T02:55:39;4.86;73.14
40059;SHT31;25763;49.972;8.568;2023-04-03T02:58:04;4.81;73.33
40059;SHT31;25763;49.972;8.568;2023-04-03T03:00:30;4.77;73.31
40059;SHT31;25763;49.972;8.568;2023-04-03T03:02:55;4.77;73.48
40059;SHT31;25763;49.972;8.568;2023-04-03T03:05:21;4.80;73.49
40059;SHT31;25763;49.972;8.568;2023-04-03T03:07:47;4.84;73.55
40059;SHT31;25763;49.972;8.568;2023-04-03T03:10:13;4.84;73.61
40059;SHT31;25763;49.972;8.568;2023-04-03T03:12:38;4.77;73.68
40059;SHT31;25763;49.972;8.568;2023-04-03T03:15:04;4.72;73.84
40059;SHT31;25763;49.972;8.568;2023-04-03T03:17:30;4.75;73.98
40059;SHT31;25763;49.972;8.568;2023-04-03T03:19:55;4.75;73.92
40059;SHT31;25763;49.972;8.568;2023-04-03T03:22:20;4.73;73.98
40059;SHT31;25763;49.972;8.568;2023-04-03T03:24:46;4.77;74.04
40059;SHT31;25763;49.972;8.568;2023-04-03T03:27:11;4.75;74.02
40059;SHT31;25763;49.972;8.568;2023-04-03T03:29:37;4.72;73.96
40059;SHT31;25763;49.972;8.568;2023-04-03T03:32:03;4.69;74.07
40059;SHT31;25763;49.972;8.568;2023-04-03T03:34:28;4.69;74.00
40059;SHT31;25763;49.972;8.568;2023-04-03T03:36:53;4.75;74.35
40059;SHT31;25763;49.972;8.568;2023-04-03T03:39:19;4.69;74.17
40059;SHT31;25763;49.972;8.568;2023-04-03T03:41:44;4.65;74.21
40059;SHT31;25763;49.972;8.568;2023-04-03T03:44:09;4.70;74.20
40059;SHT31;25763;49.972;8.568;2023-04-03T03:46:35;4.73;74.04
40059;SHT31;25763;49.972;8.568;2023-04-03T03:49:00;4.73;73.38
40059;SHT31;25763;49.972;8.568;2023-04-03T03:51:25;4.69;73.62
40059;SHT31;25763;49.972;8.568;2023-04-03T03:53:51;4.68;73.63
40059;SHT31;25763;49.972;8.568;2023-04-03T03:56:16;4.72;73.50
40059;SHT31;25763;49.972;8.568;2023-04-03T03:58:41;4.83;73.78
40059;SHT31;25763;49.972;8.568;2023-04-03T04:01:07;4.76;73.27
40059;SHT31;25763;49.972;8.568;2023-04-03T04:03:33;4.80;73.37
40059;SHT31;25763;49.972;8.568;2023-04-03T04:05:58;4.81;73.09
40059;SHT31;25763;49.972;8.568;2023-04-03T04:08:24;4.76;72.62
40059;SHT31;25763;49.972;8.568;2023-04-03T04:10:50;4.65;71.83
40059;SHT31;25763;49.972;8.568;2023-04-03T04:13:15;4.66;71.77
40059;SHT31;25763;49.972;8.568;2023-04-03T04:15:40;4.60;71.78
40059;SHT31;25763;49.972;8.568;2023-04-03T04:18:06;4.70;71.84
40059;SHT31;25763;49.972;8.568;2023-04-03T04:20:32;4.65;71.25
40059;SHT31;25763;49.972;8.568;2023-04-03T04:22:57;4.69;71.76
40059;SHT31;25763;49.972;8.568;2023-04-03T04:25:23;4.56;70.66
40059;SHT31;25763;49.972;8.568;2023-04-03T04:27:48;4.51;70.64
40059;SHT31;25763;49.972;8.568;2023-04-03T04:30:13;4.46;70.71
40059;SHT31;25763;49.972;8.568;2023-04-03T04:32:39;4.48;70.86
40059;SHT31;25763;49.972;8.568;2023-04-03T04:35:05;4.42;70.61
40059;SHT31;25763;49.972;8.568;2023-04-03T04:37:30;4.36;70.90
40059;SHT31;25763;49.972;8.568;2023-04-03T04:39:56;4.42;71.08
40059;SHT31;25763;49.972;8.568;2023-04-03T04:42:21;4.45;70.67
40059;SHT31;25763;49.972;8.568;2023-04-03T04:44:47;4.28;70.72
40059;SHT31;25763;49.972;8.568;2023-04-03T04:47:12;4.25;70.73
40059;SHT31;25763;49.972;8.568;2023-04-03T04:49:37;4.24;70.73
40059;SHT31;25763;49.972;8.568;2023-04-03T04:52:03;4.18;70.74
40059;SHT31;25763;49.972;8.568;2023-04-03T04:54:28;4.27;71.48
40059;SHT31;25763;49.972;8.568;2023-04-03T04:56:54;4.18;70.97
40059;SHT31;25763;49.972;8.568;2023-04-03T04:59:19;4.14;70.90
40059;SHT31;25763;49.972;8.568;2023-04-03T05:01:45;4.09;70.94
40059;SHT31;25763;49.972;8.568;2023-04-03T05:04:10;4.07;71.26
40059;SHT31;25763;49.972;8.568;2023-04-03T05:06:37;4.17;72.09
40059;SHT31;25763;49.972;8.568;2023-04-03T05:09:03;4.13;71.49
40059;SHT31;25763;49.972;8.568;2023-04-03T05:11:29;4.11;71.15
40059;SHT31;25763;49.972;8.568;2023-04-03T05:13:55;4.01;70.91
40059;SHT31;25763;49.972;8.568;2023-04-03T05:16:20;3.87;71.40
40059;SHT31;25763;49.972;8.568;2023-04-03T05:18:46;3.83;71.56
40059;SHT31;25763;49.972;8.568;2023-04-03T05:21:11;3.85;71.64
40059;SHT31;25763;49.972;8.568;2023-04-03T05:23:36;3.86;71.51
40059;SHT31;25763;49.972;8.568;2023-04-03T05:26:02;3.89;71.65
40059;SHT31;25763;49.972;8.568;2023-04-03T05:28:27;3.85;71.76
40059;SHT31;25763;49.972;8.568;2023-04-03T05:30:54;3.78;71.87
40059;SHT31;25763;49.972;8.568;2023-04-03T05:33:20;3.81;71.80
40059;SHT31;25763;49.972;8.568;2023-04-03T05:35:45;3.76;71.91
40059;SHT31;25763;49.972;8.568;2023-04-03T05:38:11;3.92;72.25
40059;SHT31;25763;49.972;8.568;2023-04-03T05:40:37;3.86;71.70
40059;SHT31;25763;49.972;8.568;2023-04-03T05:43:02;3.85;72.30
40059;SHT31;25763;49.972;8.568;2023-04-03T05:45:28;3.89;72.21
40059;SHT31;25763;49.972;8.568;2023-04-03T05:47:53;3.97;72.26
40059;SHT31;25763;49.972;8.568;2023-04-03T05:50:18;3.86;72.12
40059;SHT31;25763;49.972;8.568;2023-04-03T05:52:45;3.90;71.97
40059;SHT31;25763;49.972;8.568;2023-04-03T05:55:11;3.97;71.97
40059;SHT31;25763;49.972;8.568;2023-04-03T05:57:37;4.07;72.14
40059;SHT31;25763;49.972;8.568;2023-04-03T06:00:05;3.90;71.71
40059;SHT31;25763;49.972;8.568;2023-04-03T06:02:31;3.92;72.16
40059;SHT31;25763;49.972;8.568;2023-04-03T06:04:57;4.01;71.83
40059;SHT31;25763;49.972;8.568;2023-04-03T06:07:23;3.97;71.87
40059;SHT31;25763;49.972;8.568;2023-04-03T06:09:52;3.92;71.71
40059;SHT31;25763;49.972;8.568;2023-04-03T06:12:18;3.97;71.94
40059;SHT31;25763;49.972;8.568;2023-04-03T06:14:43;3.76;71.96
40059;SHT31;25763;49.972;8.568;2023-04-03T06:17:09;3.68;71.72
40059;SHT31;25763;49.972;8.568;2023-04-03T06:19:35;3.75;71.87
40059;SHT31;25763;49.972;8.568;2023-04-03T06:22:01;3.82;71.88
40059;SHT31;25763;49.972;8.568;2023-04-03T06:24:27;3.94;71.86
40059;SHT31;25763;49.972;8.568;2023-04-03T06:26:53;3.99;72.11
40059;SHT31;25763;49.972;8.568;2023-04-03T06:29:19;3.82;71.51
40059;SHT31;25763;49.972;8.568;2023-04-03T06:31:45;3.86;71.70
40059;SHT31;25763;49.972;8.568;2023-04-03T06:34:11;3.97;71.99
40059;SHT31;25763;49.972;8.568;2023-04-03T06:36:38;3.76;71.71
40059;SHT31;25763;49.972;8.568;2023-04-03T06:39:04;3.75;71.80
40059;SHT31;25763;49.972;8.568;2023-04-03T06:41:29;3.85;71.82
40059;SHT31;25763;49.972;8.568;2023-04-03T06:43:55;3.69;71.99
40059;SHT31;25763;49.972;8.568;2023-04-03T06:46:25;3.82;71.92
40059;SHT31;25763;49.972;8.568;2023-04-03T06:48:50;4.13;71.47
40059;SHT31;25763;49.972;8.568;2023-04-03T06:53:50;4.32;69.89
40059;SHT31;25763;49.972;8.568;2023-04-03T06:56:16;4.48;69.78
40059;SHT31;25763;49.972;8.568;2023-04-03T06:58:43;4.52;69.37
40059;SHT31;25763;49.972;8.568;2023-04-03T07:01:10;4.95;68.89
40059;SHT31;25763;49.972;8.568;2023-04-03T07:03:36;4.86;68.48
40059;SHT31;25763;49.972;8.568;2023-04-03T07:06:03;4.91;68.58
40059;SHT31;25763;49.972;8.568;2023-04-03T07:08:29;4.98;67.55
40059;SHT31;25763;49.972;8.568;2023-04-03T07:10:54;5.07;68.29
40059;SHT31;25763;49.972;8.568;2023-04-03T07:13:20;5.32;67.43
40059;SHT31;25763;49.972;8.568;2023-04-03T07:15:45;5.30;67.37
40059;SHT31;25763;49.972;8.568;2023-04-03T07:18:11;5.63;65.87
40059;SHT31;25763;49.972;8.568;2023-04-03T07:20:36;5.23;66.50
40059;SHT31;25763;49.972;8.568;2023-04-03T07:23:02;5.59;66.03
40059;SHT31;25763;49.972;8.568;2023-04-03T07:25:28;5.73;65.29
40059;SHT31;25763;49.972;8.568;2023-04-03T07:27:53;5.35;65.42
40059;SHT31;25763;49.972;8.568;2023-04-03T07:30:20;5.40;65.96
40059;SHT31;25763;49.972;8.568;2023-04-03T07:32:46;5.69;65.20
40059;SHT31;25763;49.972;8.568;2023-04-03T07:35:11;5.89;64.99
40059;SHT31;25763;49.972;8.568;2023-04-03T07:37:37;5.64;64.70
40059;SHT31;25763;49.972;8.568;2023-04-03T07:40:02;5.98;64.82
40059;SHT31;25763;49.972;8.568;2023-04-03T07:42:29;6.38;64.15
40059;SHT31;25763;49.972;8.568;2023-04-03T07:44:54;6.33;63.27
40059;SHT31;25763;49.972;8.568;2023-04-03T07:47:20;6.45;63.49
40059;SHT31;25763;49.972;8.568;2023-04-03T07:49:46;6.74;62.40
40059;SHT31;25763;49.972;8.568;2023-04-03T07:52:12;6.67;61.84
40059;SHT31;25763;49.972;8.568;2023-04-03T07:54:39;6.26;62.63
40059;SHT31;25763;49.972;8.568;2023-04-03T07:57:05;6.12;63.24
40059;SHT31;25763;49.972;8.568;2023-04-03T07:59:30;6.36;62.16
40059;SHT31;25763;49.972;8.568;2023-04-03T08:01:56;6.27;61.93
40059;SHT31;25763;49.972;8.568;2023-04-03T08:04:22;5.91;63.05
40059;SHT31;25763;49.972;8.568;2023-04-03T08:06:47;5.66;63.62
40059;SHT31;25763;49.972;8.568;2023-04-03T08:09:14;5.88;62.58
40059;SHT31;25763;49.972;8.568;2023-04-03T08:11:40;6.20;61.96
40059;SHT31;25763;49.972;8.568;2023-04-03T08:14:05;5.94;62.32
40059;SHT31;25763;49.972;8.568;2023-04-03T08:16:31;6.09;62.41
40059;SHT31;25763;49.972;8.568;2023-04-03T08:18:56;6.19;61.51
40059;SHT31;25763;49.972;8.568;2023-04-03T08:21:22;6.79;60.67
40059;SHT31;25763;49.972;8.568;2023-04-03T08:23:49;7.11;61.03
40059;SHT31;25763;49.972;8.568;2023-04-03T08:26:17;7.00;59.81
40059;SHT31;25763;49.972;8.568;2023-04-03T08:28:43;6.82;59.25
40059;SHT31;25763;49.972;8.568;2023-04-03T08:31:11;6.61;59.79
40059;SHT31;25763;49.972;8.568;2023-04-03T08:33:38;7.04;59.21
40059;SHT31;25763;49.972;8.568;2023-04-03T08:36:05;6.82;60.98
40059;SHT31;25763;49.972;8.568;2023-04-03T08:38:31;7.23;58.62
40059;SHT31;25763;49.972;8.568;2023-04-03T08:41:03;7.31;58.54
40059;SHT31;25763;49.972;8.568;2023-04-03T08:43:44;7.75;57.74
40059;SHT31;25763;49.972;8.568;2023-04-03T08:46:14;7.23;57.41
40059;SHT31;25763;49.972;8.568;2023-04-03T08:48:42;7.91;57.51
40059;SHT31;25763;49.972;8.568;2023-04-03T08:51:15;8.12;55.49
40059;SHT31;25763;49.972;8.568;2023-04-03T08:54:06;8.14;56.42
40059;SHT31;25763;49.972;8.568;2023-04-03T08:56:36;8.32;54.05
40059;SHT31;25763;49.972;8.568;2023-04-03T08:59:05;7.89;54.42
40059;SHT31;25763;49.972;8.568;2023-04-03T09:01:39;7.79;54.74
40059;SHT31;25763;49.972;8.568;2023-04-03T09:04:14;8.08;53.63
40059;SHT31;25763;49.972;8.568;2023-04-03T09:06:44;8.26;53.55
40059;SHT31;25763;49.972;8.568;2023-04-03T09:09:50;7.28;54.48
40059;SHT31;25763;49.972;8.568;2023-04-03T09:12:27;6.55;56.69
40059;SHT31;25763;49.972;8.568;2023-04-03T09:21:08;7.07;57.81
40059;SHT31;25763;49.972;8.568;2023-04-03T09:23:50;7.03;55.69
40059;SHT31;25763;49.972;8.568;2023-04-03T09:26:19;6.79;56.03
40059;SHT31;25763;49.972;8.568;2023-04-03T09:28:46;6.72;56.67
40059;SHT31;25763;49.972;8.568;2023-04-03T09:31:22;7.11;57.17
40059;SHT31;25763;49.972;8.568;2023-04-03T09:34:00;7.10;56.01
40059;SHT31;25763;49.972;8.568;2023-04-03T09:39:10;7.28;54.72
40059;SHT31;25763;49.972;8.568;2023-04-03T09:41:35;7.48;55.21
40059;SHT31;25763;49.972;8.568;2023-04-03T09:44:01;6.95;55.43
40059;SHT31;25763;49.972;8.568;2023-04-03T09:46:32;6.92;56.25
40059;SHT31;25763;49.972;8.568;2023-04-03T09:48:59;7.30;57.46
40059;SHT31;25763;49.972;8.568;2023-04-03T09:51:26;7.44;55.90
40059;SHT31;25763;49.972;8.568;2023-04-03T09:53:52;7.75;54.84
40059;SHT31;25763;49.972;8.568;2023-04-03T09:59:05;7.75;56.06
40059;SHT31;25763;49.972;8.568;2023-04-03T10:01:41;8.03;54.56
40059;SHT31;25763;49.972;8.568;2023-04-03T10:09:29;7.06;56.18
40059;SHT31;25763;49.972;8.568;2023-04-03T10:12:00;7.45;56.55
40059;SHT31;25763;49.972;8.568;2023-04-03T10:14:28;8.22;54.63
40059;SHT31;25763;49.972;8.568;2023-04-03T10:19:40;7.28;55.10
40059;SHT31;25763;49.972;8.568;2023-04-03T10:25:19;7.91;53.98
40059;SHT31;25763;49.972;8.568;2023-04-03T10:30:32;7.70;54.21
40059;SHT31;25763;49.972;8.568;2023-04-03T10:36:19;8.04;55.35
40059;SHT31;25763;49.972;8.568;2023-04-03T10:39:22;8.97;54.94
40059;SHT31;25763;49.972;8.568;2023-04-03T10:45:01;7.93;53.32
40059;SHT31;25763;49.972;8.568;2023-04-03T10:47:38;8.22;52.83
40059;SHT31;25763;49.972;8.568;2023-04-03T10:55:42;8.99;53.22
40059;SHT31;25763;49.972;8.568;2023-04-03T10:58:32;8.80;51.69
40059;SHT31;25763;49.972;8.568;2023-04-03T11:01:06;8.12;52.12
40059;SHT31;25763;49.972;8.568;2023-04-03T11:03:38;8.10;52.14
40059;SHT31;25763;49.972;8.568;2023-04-03T11:06:09;7.89;52.01
40059;SHT31;25763;49.972;8.568;2023-04-03T11:08:46;7.49;53.47
40059;SHT31;25763;49.972;8.568;2023-04-03T11:11:20;7.91;52.76
40059;SHT31;25763;49.972;8.568;2023-04-03T11:16:35;8.36;52.61
40059;SHT31;25763;49.972;8.568;2023-04-03T11:19:27;8.64;50.84
40059;SHT31;25763;49.972;8.568;2023-04-03T11:22:00;8.12;51.17
40059;SHT31;25763;49.972;8.568;2023-04-03T11:24:28;7.94;51.41
40059;SHT31;25763;49.972;8.568;2023-04-03T11:26:56;8.45;52.71
40059;SHT31;25763;49.972;8.568;2023-04-03T11:29:27;8.24;51.14
40059;SHT31;25763;49.972;8.568;2023-04-03T11:32:09;7.87;51.38
40059;SHT31;25763;49.972;8.568;2023-04-03T11:34:44;8.07;51.85
40059;SHT31;25763;49.972;8.568;2023-04-03T11:37:38;7.98;51.08
40059;SHT31;25763;49.972;8.568;2023-04-03T11:40:13;8.36;50.46
40059;SHT31;25763;49.972;8.568;2023-04-03T11:42:49;8.35;48.57
40059;SHT31;25763;49.972;8.568;2023-04-03T12:05:57;8.53;46.90
40059;SHT31;25763;49.972;8.568;2023-04-03T12:16:19;8.53;42.50
40059;SHT31;25763;49.972;8.568;2023-04-03T12:18:53;9.30;41.67
40059;SHT31;25763;49.972;8.568;2023-04-03T12:26:51;9.67;42.01
40059;SHT31;25763;49.972;8.568;2023-04-03T12:32:09;9.62;45.07
40059;SHT31;25763;49.972;8.568;2023-04-03T12:40:48;9.93;43.37
40059;SHT31;25763;49.972;8.568;2023-04-03T12:43:30;10.18;41.07
40059;SHT31;25763;49.972;8.568;2023-04-03T12:48:39;10.14;42.71
40059;SHT31;25763;49.972;8.568;2023-04-03T12:51:25;9.83;42.41
40059;SHT31;25763;49.972;8.568;2023-04-03T12:53:58;10.33;42.79
40059;SHT31;25763;49.972;8.568;2023-04-03T12:56:30;10.59;41.28
40059;SHT31;25763;49.972;8.568;2023-04-03T12:59:14;9.83;42.78
40059;SHT31;25763;49.972;8.568;2023-04-03T13:01:40;9.43;43.47
40059;SHT31;25763;49.972;8.568;2023-04-03T13:04:05;9.24;43.38
40059;SHT31;25763;49.972;8.568;2023-04-03T13:06:37;9.48;43.60
40059;SHT31;25763;49.972;8.568;2023-04-03T13:09:03;9.93;42.95
40059;SHT31;25763;49.972;8.568;2023-04-03T13:11:36;9.77;42.11
40059;SHT31;25763;49.972;8.568;2023-04-03T13:14:12;10.08;42.84
40059;SHT31;25763;49.972;8.568;2023-04-03T13:16:39;10.34;40.57
40059;SHT31;25763;49.972;8.568;2023-04-03T13:19:15;9.33;41.54
40059;SHT31;25763;49.972;8.568;2023-04-03T13:21:41;9.62;41.41
40059;SHT31;25763;49.972;8.568;2023-04-03T13:24:08;9.79;41.06
40059;SHT31;25763;49.972;8.568;2023-04-03T13:26:34;9.99;42.65
40059;SHT31;25763;49.972;8.568;2023-04-03T13:29:03;10.08;42.09
40059;SHT31;25763;49.972;8.568;2023-04-03T13:31:31;9.51;41.85
40059;SHT31;25763;49.972;8.568;2023-04-03T13:36:37;9.75;44.08
40059;SHT31;25763;49.972;8.568;2023-04-03T13:39:22;10.61;42.62
40059;SHT31;25763;49.972;8.568;2023-04-03T13:41:57;10.31;40.35
40059;SHT31;25763;49.972;8.568;2023-04-03T13:46:55;10.57;41.21
40059;SHT31;25763;49.972;8.568;2023-04-03T13:49:36;9.81;40.95
40059;SHT31;25763;49.972;8.568;2023-04-03T13:54:47;9.48;42.12
40059;SHT31;25763;49.972;8.568;2023-04-03T13:57:16;9.75;42.19
40059;SHT31;25763;49.972;8.568;2023-04-03T13:59:42;9.24;42.55
40059;SHT31;25763;49.972;8.568;2023-04-03T14:04:47;9.65;42.07
40059;SHT31;25763;49.972;8.568;2023-04-03T14:07:14;9.67;42.85
40059;SHT31;25763;49.972;8.568;2023-04-03T14:09:41;9.86;42.15
40059;SHT31;25763;49.972;8.568;2023-04-03T14:12:14;9.46;42.10
40059;SHT31;25763;49.972;8.568;2023-04-03T14:14:40;9.57;42.31
40059;SHT31;25763;49.972;8.568;2023-04-03T14:17:18;9.86;42.82
40059;SHT31;25763;49.972;8.568;2023-04-03T14:19:44;9.52;41.82
40059;SHT31;25763;49.972;8.568;2023-04-03T14:22:20;9.40;42.02
40059;SHT31;25763;49.972;8.568;2023-04-03T14:24:47;9.77;43.68
40059;SHT31;25763;49.972;8.568;2023-04-03T14:27:22;10.05;41.31
40059;SHT31;25763;49.972;8.568;2023-04-03T14:29:50;9.72;40.37
40059;SHT31;25763;49.972;8.568;2023-04-03T14:32:17;9.96;41.79
40059;SHT31;25763;49.972;8.568;2023-04-03T14:34:44;9.79;41.81
40059;SHT31;25763;49.972;8.568;2023-04-03T14:37:13;9.54;41.07
40059;SHT31;25763;49.972;8.568;2023-04-03T14:39:39;10.14;42.81
40059;SHT31;25763;49.972;8.568;2023-04-03T14:42:04;9.95;41.36
40059;SHT31;25763;49.972;8.568;2023-04-03T14:44:30;10.34;40.98
40059;SHT31;25763;49.972;8.568;2023-04-03T14:46:55;10.09;41.23
40059;SHT31;25763;49.972;8.568;2023-04-03T14:49:24;10.13;41.16
40059;SHT31;25763;49.972;8.568;2023-04-03T14:51:50;10.03;40.35
40059;SHT31;25763;49.972;8.568;2023-04-03T14:54:18;10.61;42.09
40059;SHT31;25763;49.972;8.568;2023-04-03T14:56:44;10.16;40.54
40059;SHT31;25763;49.972;8.568;2023-04-03T14:59:14;9.72;41.70
40059;SHT31;25763;49.972;8.568;2023-04-03T15:01:40;9.71;42.13
40059;SHT31;25763;49.972;8.568;2023-04-03T15:04:12;9.55;41.54
40059;SHT31;25763;49.972;8.568;2023-04-03T15:06:38;9.95;41.47
40059;SHT31;25763;49.972;8.568;2023-04-03T15:09:04;9.43;42.17
40059;SHT31;25763;49.972;8.568;2023-04-03T15:11:29;9.46;41.73
40059;SHT31;25763;49.972;8.568;2023-04-03T15:13:54;9.59;41.80
40059;SHT31;25763;49.972;8.568;2023-04-03T15:16:20;9.27;41.98
40059;SHT31;25763;49.972;8.568;2023-04-03T15:18:47;9.64;42.43
40059;SHT31;25763;49.972;8.568;2023-04-03T15:21:12;9.92;42.23
40059;SHT31;25763;49.972;8.568;2023-04-03T15:23:37;9.72;41.93
40059;SHT31;25763;49.972;8.568;2023-04-03T15:26:03;9.78;41.23
40059;SHT31;25763;49.972;8.568;2023-04-03T15:30:55;10.31;42.80
40059;SHT31;25763;49.972;8.568;2023-04-03T15:33:20;9.79;41.52
40059;SHT31;25763;49.972;8.568;2023-04-03T15:35:46;9.14;41.53
40059;SHT31;25763;49.972;8.568;2023-04-03T15:38:11;9.19;42.92
40059;SHT31;25763;49.972;8.568;2023-04-03T15:40:37;9.62;42.99
40059;SHT31;25763;49.972;8.568;2023-04-03T15:43:03;9.19;43.08
40059;SHT31;25763;49.972;8.568;2023-04-03T15:45:29;9.18;43.57
40059;SHT31;25763;49.972;8.568;2023-04-03T15:47:56;8.98;42.74
40059;SHT31;25763;49.972;8.568;2023-04-03T15:50:21;8.94;42.91
40059;SHT31;25763;49.972;8.568;2023-04-03T15:52:49;8.77;43.05
40059;SHT31;25763;49.972;8.568;2023-04-03T15:55:23;8.73;43.46
40059;SHT31;25763;49.972;8.568;2023-04-03T15:57:48;8.63;43.11
40059;SHT31;25763;49.972;8.568;2023-04-03T16:00:14;8.63;44.20
40059;SHT31;25763;49.972;8.568;2023-04-03T16:02:40;8.81;43.64
40059;SHT31;25763;49.972;8.568;2023-04-03T16:05:06;8.73;43.98
40059;SHT31;25763;49.972;8.568;2023-04-03T16:07:32;8.64;44.18
40059;SHT31;25763;49.972;8.568;2023-04-03T16:09:57;8.50;43.71
40059;SHT31;25763;49.972;8.568;2023-04-03T16:12:23;8.26;43.46
40059;SHT31;25763;49.972;8.568;2023-04-03T16:14:48;8.33;43.67
40059;SHT31;25763;49.972;8.568;2023-04-03T16:17:13;8.28;44.46
40059;SHT31;25763;49.972;8.568;2023-04-03T16:19:39;8.43;45.26
40059;SHT31;25763;49.972;8.568;2023-04-03T16:22:04;8.50;44.14
40059;SHT31;25763;49.972;8.568;2023-04-03T16:24:30;8.53;43.78
40059;SHT31;25763;49.972;8.568;2023-04-03T16:26:55;8.56;44.43
40059;SHT31;25763;49.972;8.568;2023-04-03T16:29:21;8.42;43.74
40059;SHT31;25763;49.972;8.568;2023-04-03T16:31:46;8.22;44.30
40059;SHT31;25763;49.972;8.568;2023-04-03T16:34:12;8.28;44.90
40059;SHT31;25763;49.972;8.568;2023-04-03T16:36:37;8.10;44.72
40059;SHT31;25763;49.972;8.568;2023-04-03T16:39:03;8.03;44.78
40059;SHT31;25763;49.972;8.568;2023-04-03T16:41:29;7.94;45.08
40059;SHT31;25763;49.972;8.568;2023-04-03T16:43:54;7.94;45.10
40059;SHT31;25763;49.972;8.568;2023-04-03T16:46:19;7.94;45.38
40059;SHT31;25763;49.972;8.568;2023-04-03T16:48:45;8.01;45.47
40059;SHT31;25763;49.972;8.568;2023-04-03T16:51:12;7.91;45.17
40059;SHT31;25763;49.972;8.568;2023-04-03T16:53:37;7.86;45.11
40059;SHT31;25763;49.972;8.568;2023-04-03T16:56:03;7.82;44.81
40059;SHT31;25763;49.972;8.568;2023-04-03T16:58:28;7.69;44.76
40059;SHT31;25763;49.972;8.568;2023-04-03T17:00:54;7.65;44.93
40059;SHT31;25763;49.972;8.568;2023-04-03T17:03:20;7.65;44.72
40059;SHT31;25763;49.972;8.568;2023-04-03T17:05:49;7.62;45.13
40059;SHT31;25763;49.972;8.568;2023-04-03T17:08:16;7.60;45.49
40059;SHT31;25763;49.972;8.568;2023-04-03T17:10:42;7.65;46.24
40059;SHT31;25763;49.972;8.568;2023-04-03T17:13:07;7.60;45.83
40059;SHT31;25763;49.972;8.568;2023-04-03T17:15:33;7.56;45.18
40059;SHT31;25763;49.972;8.568;2023-04-03T17:17:59;7.45;45.62
40059;SHT31;25763;49.972;8.568;2023-04-03T17:20:24;7.34;45.34
40059;SHT31;25763;49.972;8.568;2023-04-03T17:22:50;7.31;46.07
40059;SHT31;25763;49.972;8.568;2023-04-03T17:25:16;7.32;45.64
40059;SHT31;25763;49.972;8.568;2023-04-03T17:27:41;7.28;46.07
40059;SHT31;25763;49.972;8.568;2023-04-03T17:30:07;7.20;46.42
40059;SHT31;25763;49.972;8.568;2023-04-03T17:32:33;7.18;46.09
40059;SHT31;25763;49.972;8.568;2023-04-03T17:34:58;7.16;46.42
40059;SHT31;25763;49.972;8.568;2023-04-03T17:37:23;7.09;46.25